Terminal Aerodrome Forecast
Issued by NWS

Home | Current Version | Previous Version | Text Only | Print | Product List | Glossary On
Versions: 1 2 3 4 5 6 7 8 9 10 11 12 13 14 15 16
511
FTUS45 KTFX 140539
TAFLWT
TAF
KLWT 140539Z 1406/1506 24008KT P6SM SCT120
     FM140900 26012KT P6SM BKN100
     FM141200 26012G22KT P6SM VCSH SCT050 OVC080
     FM150000 29012KT P6SM SCT080 BKN200=

USA.gov is the U.S. government's official web portal to all federal, state and local government web resources and services.